Time;durP1;ratioP1;P1;durP2;ratioP2;P2;SDS_P1;SDS_P2;PMS_P1;PMS_P2;Temp;Humidity;BMP_temperature;BMP_pressure;BME280_temperature;BME280_humidity;BME280_pressure;Samples;Min_cycle;Max_cycle;Signal;HPM_P1;HPM_P2
2020/12/18 00:00:52;;;;;;;1.02;1.02;;;6.10;80.40;;;;;;4969407;28;20050;-90
2020/12/18 00:03:18;;;;;;;0.77;0.77;;;6.10;80.40;;;;;;4977868;28;20062;-89
2020/12/18 00:05:44;;;;;;;0.93;0.93;;;6.10;80.60;;;;;;4979501;28;20034;-90
2020/12/18 00:08:10;;;;;;;0.88;0.88;;;6.10;80.60;;;;;;4995745;28;20124;-91
2020/12/18 00:10:38;;;;;;;1.02;1.02;;;6.10;80.60;;;;;;5000203;28;20033;-89
2020/12/18 00:13:04;;;;;;;0.93;0.93;;;6.10;80.70;;;;;;5004287;28;20042;-91
2020/12/18 00:15:30;;;;;;;1.17;1.02;;;6.10;80.80;;;;;;5007527;28;20140;-89
2020/12/18 00:17:56;;;;;;;1.23;1.13;;;6.10;80.80;;;;;;4987927;28;20042;-89
2020/12/18 00:20:22;;;;;;;1.02;1.00;;;6.10;80.80;;;;;;5003828;28;20038;-89
2020/12/18 00:22:48;;;;;;;1.25;1.00;;;6.00;81.00;;;;;;5003068;28;20098;-87
2020/12/18 00:25:15;;;;;;;0.90;0.90;;;6.10;81.10;;;;;;4986110;28;20042;-87
2020/12/18 00:27:44;;;;;;;0.85;0.85;;;6.10;81.10;;;;;;5002979;28;20046;-88
2020/12/18 00:30:11;;;;;;;0.80;0.80;;;6.10;81.10;;;;;;5003048;28;20042;-89
2020/12/18 00:32:39;;;;;;;1.08;1.00;;;6.10;81.30;;;;;;4983506;28;20031;-90
2020/12/18 00:35:08;;;;;;;0.95;0.95;;;6.10;81.40;;;;;;4998508;28;20382;-89
2020/12/18 00:37:34;;;;;;;1.40;1.00;;;6.10;81.40;;;;;;4998916;28;20100;-90
2020/12/18 00:40:00;;;;;;;1.58;1.00;;;6.10;81.40;;;;;;4998969;28;20108;-86
2020/12/18 00:42:29;;;;;;;1.00;0.90;;;6.10;81.30;;;;;;4999016;28;20115;-87
2020/12/18 00:44:56;;;;;;;0.90;0.90;;;6.10;81.30;;;;;;4965640;28;20122;-89
2020/12/18 00:47:22;;;;;;;1.02;1.00;;;6.10;81.20;;;;;;4986518;28;20046;-90
2020/12/18 00:49:49;;;;;;;0.75;0.75;;;6.10;81.20;;;;;;4998481;28;20038;-83
2020/12/18 00:52:14;;;;;;;1.00;1.00;;;6.10;81.40;;;;;;4996800;28;20053;-82
2020/12/18 00:54:41;;;;;;;1.10;1.10;;;6.10;81.30;;;;;;4963251;28;20043;-86
2020/12/18 00:57:10;;;;;;;0.80;0.80;;;6.10;81.10;;;;;;4964335;28;20030;-85
2020/12/18 00:59:36;;;;;;;0.90;0.90;;;6.10;81.00;;;;;;4980634;28;20133;-86
2020/12/18 01:02:06;;;;;;;1.00;1.00;;;6.10;81.00;;;;;;4980601;28;20076;-86
2020/12/18 01:04:33;;;;;;;0.95;0.95;;;6.10;80.80;;;;;;4979864;28;20058;-86
2020/12/18 01:07:01;;;;;;;1.10;1.10;;;6.10;80.80;;;;;;4979952;28;20581;-85
2020/12/18 01:09:27;;;;;;;1.60;1.50;;;6.10;80.80;;;;;;4962337;28;20085;-85
2020/12/18 01:12:02;;;;;;;1.67;1.58;;;6.10;80.60;;;;;;4979436;28;20075;-86
2020/12/18 01:14:29;;;;;;;1.30;1.23;;;6.10;80.40;;;;;;4963307;28;20143;-88
2020/12/18 01:16:58;;;;;;;1.42;1.33;;;6.10;80.40;;;;;;4979560;28;20065;-87
2020/12/18 01:19:24;;;;;;;1.15;1.15;;;6.10;80.30;;;;;;4979590;28;20042;-87
2020/12/18 01:21:51;;;;;;;1.30;1.20;;;6.10;80.00;;;;;;4963346;28;20042;-85
2020/12/18 01:24:21;;;;;;;1.50;1.17;;;6.10;80.00;;;;;;4983966;28;20069;-86
2020/12/18 01:26:53;;;;;;;1.48;1.38;;;6.10;80.60;;;;;;4979069;28;20054;-87
2020/12/18 01:29:19;;;;;;;1.63;1.52;;;6.10;80.60;;;;;;4978828;28;20042;-87
2020/12/18 01:31:47;;;;;;;1.55;1.45;;;6.10;80.00;;;;;;4978459;28;20034;-87
2020/12/18 01:34:14;;;;;;;1.40;1.30;;;6.10;80.10;;;;;;4962692;28;20049;-87
2020/12/18 01:36:40;;;;;;;2.63;1.70;;;6.10;80.10;;;;;;4996263;28;20026;-85
2020/12/18 01:39:19;;;;;;;1.60;1.50;;;6.10;80.20;;;;;;4996492;28;20053;-87
2020/12/18 01:41:45;;;;;;;1.48;1.27;;;6.00;81.00;;;;;;4978814;28;20125;-82
2020/12/18 01:44:12;;;;;;;1.90;1.50;;;6.00;80.40;;;;;;4978243;28;20030;-82
2020/12/18 01:46:41;;;;;;;1.63;1.52;;;6.00;80.30;;;;;;4977971;28;20030;-81
2020/12/18 01:49:08;;;;;;;1.92;1.70;;;6.10;80.40;;;;;;4978502;28;20406;-82
2020/12/18 01:51:34;;;;;;;2.38;1.55;;;6.10;80.50;;;;;;4976907;28;20058;-83
2020/12/18 01:54:04;;;;;;;1.63;1.52;;;6.10;80.60;;;;;;4978854;28;20038;-83
2020/12/18 01:56:37;;;;;;;2.03;1.75;;;6.10;80.60;;;;;;4978057;28;20046;-83
2020/12/18 01:59:13;;;;;;;2.40;1.83;;;6.00;80.60;;;;;;4995243;28;20045;-86
2020/12/18 02:02:08;;;;;;;2.95;1.80;;;6.10;80.70;;;;;;4986181;28;20506;-88
2020/12/18 02:04:45;;;;;;;2.22;1.77;;;6.00;80.60;;;;;;4998336;28;20052;-91
2020/12/18 02:07:20;;;;;;;3.10;1.75;;;6.00;80.70;;;;;;4988389;28;20066;-89
2020/12/18 02:09:56;;;;;;;4.88;1.98;;;6.00;80.50;;;;;;4972730;28;20042;-84
2020/12/18 02:12:26;;;;;;;1.90;1.63;;;6.00;80.40;;;;;;4994992;28;20045;-83
2020/12/18 02:14:53;;;;;;;2.50;1.70;;;6.00;80.30;;;;;;4978093;28;20038;-84
2020/12/18 02:17:19;;;;;;;2.65;2.00;;;6.00;80.30;;;;;;4977895;28;20081;-86
2020/12/18 02:19:54;;;;;;;3.25;1.90;;;6.00;80.00;;;;;;4977553;28;20081;-84
2020/12/18 02:22:25;;;;;;;2.03;1.70;;;6.10;79.90;;;;;;4977638;28;20034;-85
2020/12/18 02:25:08;;;;;;;1.40;1.30;;;6.00;79.70;;;;;;4977588;28;20038;-83
2020/12/18 02:27:36;;;;;;;1.50;1.40;;;6.00;79.50;;;;;;4977967;28;20034;-83
2020/12/18 02:30:11;;;;;;;1.40;1.30;;;6.00;79.50;;;;;;4961849;28;20506;-84
2020/12/18 02:32:54;;;;;;;1.90;1.60;;;6.10;79.40;;;;;;4994676;28;20555;-84
2020/12/18 02:35:21;;;;;;;4.53;2.10;;;6.00;79.10;;;;;;4982838;28;20038;-83
2020/12/18 02:37:47;;;;;;;1.33;1.23;;;6.00;78.80;;;;;;4977565;28;20046;-85
2020/12/18 02:40:23;;;;;;;1.65;1.50;;;6.00;78.80;;;;;;4977442;28;20406;-85
2020/12/18 02:43:07;;;;;;;1.40;1.30;;;6.00;78.50;;;;;;4994741;28;20464;-84
2020/12/18 02:45:34;;;;;;;1.45;1.35;;;6.00;78.20;;;;;;4976725;28;20441;-86
2020/12/18 02:48:22;;;;;;;2.00;1.30;;;6.00;78.00;;;;;;4977320;28;20041;-86
2020/12/18 02:50:57;;;;;;;1.55;1.45;;;6.00;77.80;;;;;;4962285;28;20042;-86
2020/12/18 02:53:23;;;;;;;1.40;1.30;;;6.00;77.70;;;;;;4961169;28;20038;-86
2020/12/18 02:56:08;;;;;;;1.33;1.20;;;6.00;77.80;;;;;;4994147;28;20045;-86
2020/12/18 02:58:53;;;;;;;1.35;1.23;;;6.00;77.60;;;;;;4994337;28;20165;-86
2020/12/18 03:01:20;;;;;;;1.55;1.38;;;6.00;77.50;;;;;;4976665;28;20038;-85
2020/12/18 03:03:46;;;;;;;1.27;1.17;;;5.90;77.40;;;;;;4976879;28;20486;-87
2020/12/18 03:06:25;;;;;;;1.38;1.27;;;5.90;77.30;;;;;;4984031;28;20081;-89
2020/12/18 03:08:53;;;;;;;1.50;1.40;;;6.00;77.20;;;;;;4984287;28;20041;-87
2020/12/18 03:11:19;;;;;;;1.23;1.02;;;5.90;76.90;;;;;;4977827;28;20151;-82
2020/12/18 03:13:47;;;;;;;2.15;1.40;;;6.00;76.70;;;;;;4962938;28;20090;-82
2020/12/18 03:16:14;;;;;;;1.77;1.50;;;5.90;76.60;;;;;;4977003;28;20170;-82
2020/12/18 03:19:03;;;;;;;1.30;1.20;;;5.90;76.50;;;;;;4969330;28;20459;-83
2020/12/18 03:21:30;;;;;;;1.63;1.52;;;5.90;76.30;;;;;;4994029;28;20035;-82
2020/12/18 03:24:14;;;;;;;1.52;1.40;;;6.00;76.20;;;;;;4994407;28;20104;-82
2020/12/18 03:26:50;;;;;;;1.08;1.00;;;6.00;76.20;;;;;;4962748;28;20042;-85
2020/12/18 03:29:24;;;;;;;1.42;1.27;;;5.90;76.00;;;;;;4976521;28;20042;-86
2020/12/18 03:31:51;;;;;;;1.20;1.10;;;5.90;76.10;;;;;;4962900;28;20034;-82
2020/12/18 03:34:17;;;;;;;1.92;1.27;;;6.00;76.10;;;;;;4976880;28;20088;-80
2020/12/18 03:36:50;;;;;;;2.20;1.33;;;5.90;76.00;;;;;;4961342;28;20138;-82
2020/12/18 03:39:25;;;;;;;1.05;1.05;;;6.00;75.90;;;;;;4978849;28;20042;-83
2020/12/18 03:42:06;;;;;;;1.52;1.30;;;6.00;76.10;;;;;;4954799;28;20179;-88
2020/12/18 03:44:34;;;;;;;1.40;1.30;;;6.00;76.00;;;;;;4980557;28;20438;-86
2020/12/18 03:47:00;;;;;;;1.40;1.30;;;6.00;76.10;;;;;;4969960;28;20433;-82
2020/12/18 03:49:45;;;;;;;1.42;1.33;;;6.00;76.00;;;;;;4976676;28;20041;-79
2020/12/18 03:52:12;;;;;;;1.33;1.23;;;6.00;76.10;;;;;;4975824;28;20038;-80
2020/12/18 03:54:46;;;;;;;1.00;1.00;;;6.00;76.00;;;;;;4976226;28;20510;-87
2020/12/18 03:57:32;;;;;;;1.52;1.42;;;5.90;76.10;;;;;;4979733;28;20061;-83
2020/12/18 04:00:15;;;;;;;1.30;1.20;;;6.00;76.10;;;;;;4976316;28;20034;-84
2020/12/18 04:02:52;;;;;;;1.35;1.25;;;6.00;76.20;;;;;;4975667;28;20149;-84
2020/12/18 04:05:20;;;;;;;1.17;1.17;;;6.00;76.10;;;;;;4975886;28;20386;-86
2020/12/18 04:07:50;;;;;;;1.67;1.58;;;6.00;76.10;;;;;;4976232;28;20070;-86
2020/12/18 04:10:36;;;;;;;1.63;1.52;;;6.00;76.10;;;;;;4978591;28;20069;-84
2020/12/18 04:13:38;;;;;;;1.98;1.73;;;6.00;76.10;;;;;;4964820;28;20540;-86
2020/12/18 04:16:04;;;;;;;1.70;1.60;;;6.00;76.30;;;;;;4980072;28;20061;-87
2020/12/18 04:18:31;;;;;;;1.83;1.70;;;6.00;76.20;;;;;;4980021;28;20042;-87
2020/12/18 04:20:59;;;;;;;1.60;1.50;;;6.00;76.20;;;;;;4963679;28;20578;-85
2020/12/18 04:23:36;;;;;;;1.65;1.55;;;6.00;76.10;;;;;;4965538;28;20125;-85
2020/12/18 04:26:25;;;;;;;1.75;1.65;;;6.00;76.20;;;;;;4982940;28;20046;-86
2020/12/18 04:28:52;;;;;;;2.00;1.80;;;6.00;76.30;;;;;;4963787;28;20037;-86
2020/12/18 04:31:18;;;;;;;1.70;1.60;;;6.00;76.20;;;;;;4979640;28;20034;-86
2020/12/18 04:33:45;;;;;;;1.55;1.45;;;6.00;76.30;;;;;;4980536;28;20046;-86
2020/12/18 04:36:16;;;;;;;2.08;1.65;;;6.00;76.20;;;;;;4965902;28;20062;-86
2020/12/18 04:38:42;;;;;;;2.17;1.70;;;6.00;76.20;;;;;;4980846;28;20518;-83
2020/12/18 04:41:18;;;;;;;;;;;6.00;76.20;;;;;;4982213;28;20046;-86
2020/12/18 04:43:56;;;;;;;1.70;1.60;;;6.10;76.10;;;;;;4989703;28;19976;-87
2020/12/18 04:46:35;;;;;;;3.35;1.80;;;6.00;76.20;;;;;;4986589;28;20088;-91
2020/12/18 04:49:04;;;;;;;1.80;1.60;;;6.00;76.30;;;;;;4983235;28;20405;-88
2020/12/18 04:51:42;;;;;;;2.58;1.70;;;6.00;76.30;;;;;;4983366;28;20486;-86
2020/12/18 04:54:21;;;;;;;1.55;1.30;;;6.00;76.40;;;;;;4965763;28;20088;-85
2020/12/18 04:56:58;;;;;;;1.90;1.63;;;6.00;76.40;;;;;;4980628;28;20085;-83
2020/12/18 04:59:27;;;;;;;1.83;1.73;;;6.00;76.40;;;;;;4980486;28;20088;-84
2020/12/18 05:02:15;;;;;;;3.65;1.60;;;6.00;76.40;;;;;;4995213;28;20062;-84
2020/12/18 05:04:46;;;;;;;2.33;1.85;;;6.00;76.40;;;;;;4979649;28;20061;-83
2020/12/18 05:07:35;;;;;;;3.00;2.05;;;6.00;76.50;;;;;;4991719;28;20569;-86
2020/12/18 05:10:06;;;;;;;1.63;1.50;;;6.00;76.60;;;;;;4984561;28;20042;-86
2020/12/18 05:12:51;;;;;;;2.13;1.65;;;6.00;76.70;;;;;;4980491;28;20038;-86
2020/12/18 05:15:22;;;;;;;1.90;1.80;;;6.00;76.70;;;;;;4984574;28;20174;-86
2020/12/18 05:18:08;;;;;;;2.13;1.50;;;6.00;76.70;;;;;;4999781;28;20130;-86
2020/12/18 05:20:36;;;;;;;2.58;1.95;;;6.00;76.80;;;;;;4982645;28;20038;-87
2020/12/18 05:23:26;;;;;;;1.85;1.75;;;6.00;76.90;;;;;;4971820;28;20038;-84
2020/12/18 05:26:11;;;;;;;2.03;1.60;;;6.00;76.90;;;;;;4998370;28;20041;-90
2020/12/18 05:28:47;;;;;;;2.55;2.00;;;6.10;77.00;;;;;;4985913;28;20066;-87
2020/12/18 05:31:17;;;;;;;2.22;1.80;;;6.00;77.10;;;;;;5003545;28;20034;-85
2020/12/18 05:34:04;;;;;;;3.15;2.13;;;6.10;77.20;;;;;;5047857;23;20062;-88
2020/12/18 05:36:46;;;;;;;2.58;2.25;;;6.00;77.20;;;;;;4999068;28;20038;-87
2020/12/18 05:39:13;;;;;;;1.98;1.77;;;6.10;77.30;;;;;;4985855;28;20062;-87
2020/12/18 05:41:44;;;;;;;2.20;2.00;;;6.10;77.40;;;;;;5000753;28;20022;-85
2020/12/18 05:44:11;;;;;;;2.00;1.83;;;6.10;77.50;;;;;;4995696;28;20034;-86
2020/12/18 05:47:05;;;;;;;1.88;1.77;;;6.10;77.50;;;;;;4988332;28;20413;-91
2020/12/18 05:49:36;;;;;;;1.75;1.65;;;6.00;77.70;;;;;;4981647;28;20026;-86
2020/12/18 05:52:19;;;;;;;2.03;1.92;;;6.00;77.80;;;;;;4979482;28;20520;-87
2020/12/18 05:55:12;;;;;;;2.30;2.10;;;6.00;77.70;;;;;;4990029;28;20042;-87
2020/12/18 05:57:58;;;;;;;2.08;1.75;;;6.00;77.90;;;;;;4995353;28;20050;-88
2020/12/18 06:00:36;;;;;;;2.05;1.85;;;6.00;77.90;;;;;;4963599;28;20030;-85
2020/12/18 06:03:35;;;;;;;1.98;1.77;;;6.00;77.90;;;;;;5001360;28;20118;-86
2020/12/18 06:06:10;;;;;;;2.45;2.08;;;6.00;78.00;;;;;;4978729;28;20034;-89
2020/12/18 06:08:39;;;;;;;3.38;1.90;;;6.10;77.90;;;;;;4966468;28;20390;-87
2020/12/18 06:11:12;;;;;;;2.53;2.10;;;6.00;77.80;;;;;;4985985;28;20112;-87
2020/12/18 06:14:02;;;;;;;2.05;1.77;;;6.00;77.90;;;;;;4995696;28;20050;-88
2020/12/18 06:16:43;;;;;;;1.98;1.65;;;6.00;77.60;;;;;;4978434;28;20180;-86
2020/12/18 06:19:20;;;;;;;1.60;1.50;;;6.00;77.50;;;;;;4977965;28;20046;-86
2020/12/18 06:21:58;;;;;;;1.50;1.40;;;6.00;77.00;;;;;;4978161;28;20054;-85
2020/12/18 06:24:45;;;;;;;1.67;1.58;;;6.10;76.80;;;;;;4994778;28;20054;-87
2020/12/18 06:27:22;;;;;;;10.02;6.63;;;6.10;76.70;;;;;;4978260;28;20138;-86
2020/12/18 06:30:09;;;;;;;6.20;4.75;;;6.10;76.70;;;;;;4963300;28;20030;-84
2020/12/18 06:33:11;;;;;;;7.40;4.35;;;6.00;76.60;;;;;;4934864;29;20052;-83
2020/12/18 06:35:46;;;;;;;7.60;4.80;;;6.10;76.60;;;;;;4967034;28;20101;-85
2020/12/18 06:38:24;;;;;;;5.07;3.75;;;6.10;77.10;;;;;;4994815;28;20137;-85
2020/12/18 06:41:24;;;;;;;6.88;3.53;;;6.10;76.30;;;;;;4960722;28;20500;-88
2020/12/18 06:44:39;;;;;;;4.25;3.35;;;6.10;76.30;;;;;;4979869;28;20042;-89
2020/12/18 06:47:30;;;;;;;3.33;2.72;;;6.10;76.10;;;;;;4959029;28;20493;-87
2020/12/18 06:50:06;;;;;;;3.58;2.55;;;6.00;76.00;;;;;;4980528;28;20091;-90
2020/12/18 06:53:14;;;;;;;5.13;2.33;;;6.00;76.00;;;;;;4940721;29;20051;-82
2020/12/18 06:56:03;;;;;;;2.22;2.03;;;5.90;76.10;;;;;;4987320;28;20105;-81
2020/12/18 06:58:34;;;;;;;2.60;2.40;;;5.90;76.00;;;;;;4993689;28;20050;-83
2020/12/18 07:01:00;;;;;;;1.98;1.80;;;5.90;76.00;;;;;;4994765;28;20527;-82
2020/12/18 07:03:35;;;;;;;1.88;1.77;;;5.90;76.00;;;;;;4994588;28;20034;-86
2020/12/18 07:06:06;;;;;;;3.58;2.15;;;5.90;75.90;;;;;;4976977;28;20042;-85
2020/12/18 07:08:34;;;;;;;2.30;2.10;;;5.90;76.10;;;;;;4976450;28;20506;-83
2020/12/18 07:11:06;;;;;;;2.20;2.00;;;5.90;76.10;;;;;;4993930;28;20533;-81
2020/12/18 07:13:34;;;;;;;2.80;1.80;;;5.90;76.40;;;;;;4977445;28;20435;-84
2020/12/18 07:16:06;;;;;;;1.75;1.65;;;5.80;76.60;;;;;;4994113;28;20041;-85
2020/12/18 07:18:36;;;;;;;2.90;2.00;;;5.90;76.70;;;;;;4994558;28;20043;-84
2020/12/18 07:21:14;;;;;;;1.98;1.88;;;5.90;76.80;;;;;;4978999;28;20049;-84
2020/12/18 07:23:45;;;;;;;2.22;1.98;;;5.90;76.80;;;;;;4982189;28;20084;-92
2020/12/18 07:26:12;;;;;;;3.05;2.30;;;5.90;76.70;;;;;;4975161;28;20042;-82
2020/12/18 07:28:39;;;;;;;3.03;1.92;;;5.90;76.70;;;;;;4991227;28;20054;-84
2020/12/18 07:31:20;;;;;;;3.03;1.77;;;5.90;76.40;;;;;;4973847;28;20497;-83
2020/12/18 07:33:51;;;;;;;2.08;1.90;;;5.90;76.20;;;;;;4976192;28;20093;-86
2020/12/18 07:36:17;;;;;;;1.80;1.70;;;5.80;76.00;;;;;;4976527;28;20034;-86
2020/12/18 07:38:43;;;;;;;3.05;2.40;;;5.80;75.80;;;;;;4996623;28;20045;-90
2020/12/18 07:41:14;;;;;;;2.65;2.45;;;5.90;75.80;;;;;;4997387;28;20146;-87
2020/12/18 07:43:41;;;;;;;3.10;2.80;;;5.90;75.80;;;;;;4977773;28;20045;-86
2020/12/18 07:46:10;;;;;;;3.45;2.78;;;5.80;76.00;;;;;;4998536;28;20042;-87
2020/12/18 07:48:39;;;;;;;4.05;2.78;;;5.90;76.40;;;;;;5004120;28;20046;-92
2020/12/18 07:51:06;;;;;;;4.88;3.42;;;5.90;76.70;;;;;;5000002;28;20046;-85
2020/12/18 07:53:35;;;;;;;4.88;3.35;;;5.90;76.90;;;;;;4995283;28;20496;-83
2020/12/18 07:56:08;;;;;;;4.57;3.78;;;5.90;77.00;;;;;;4995554;28;20042;-84
2020/12/18 07:58:43;;;;;;;4.80;3.75;;;5.90;77.20;;;;;;4979715;28;20038;-85
2020/12/18 08:01:10;;;;;;;;;;;5.90;77.30;;;;;;4999795;28;20110;-88
2020/12/18 08:03:43;;;;;;;4.40;3.13;;;5.90;77.30;;;;;;5003909;28;19913;-85
2020/12/18 08:06:15;;;;;;;3.22;2.92;;;5.90;77.30;;;;;;5004983;28;20042;-88
2020/12/18 08:08:42;;;;;;;3.70;3.00;;;5.90;77.30;;;;;;5001912;28;20038;-85
2020/12/18 08:11:16;;;;;;;4.50;3.05;;;5.90;77.20;;;;;;4989326;28;20098;-90
2020/12/18 08:13:43;;;;;;;3.38;2.92;;;5.90;76.90;;;;;;4988214;28;20046;-84
2020/12/18 08:16:11;;;;;;;2.58;2.38;;;5.90;76.50;;;;;;5004185;28;20046;-88
2020/12/18 08:18:38;;;;;;;3.13;2.67;;;5.90;76.40;;;;;;4985977;28;20046;-89
2020/12/18 08:21:05;;;;;;;2.58;2.35;;;5.90;76.20;;;;;;5003153;28;20030;-89
2020/12/18 08:23:36;;;;;;;2.58;2.38;;;5.90;76.10;;;;;;5008891;28;20038;-88
2020/12/18 08:26:04;;;;;;;4.63;2.67;;;5.90;76.70;;;;;;5013926;28;20038;-93
2020/12/18 08:28:32;;;;;;;3.03;2.40;;;5.90;76.00;;;;;;5000611;28;20042;-92
2020/12/18 08:31:05;;;;;;;2.58;2.38;;;5.80;76.00;;;;;;5015222;28;20034;-93
2020/12/18 08:33:51;;;;;;;3.00;2.60;;;5.80;75.90;;;;;;5014812;28;20050;-90
2020/12/18 08:36:18;;;;;;;;;;;5.80;75.80;;;;;;4996069;28;20142;-90
2020/12/18 08:39:04;;;;;;;;;;;5.90;75.80;;;;;;4996355;28;19925;-87
2020/12/18 08:41:49;;;;;;;4.13;2.80;;;5.80;75.80;;;;;;5010838;28;20395;-87
2020/12/18 08:44:17;;;;;;;4.97;2.53;;;5.80;75.70;;;;;;4997598;28;20038;-90
2020/12/18 08:46:44;;;;;;;2.85;2.55;;;5.80;75.80;;;;;;5016847;28;20090;-89
2020/12/18 08:49:13;;;;;;;3.00;2.72;;;5.80;75.80;;;;;;5011059;28;20105;-88
2020/12/18 08:51:39;;;;;;;3.35;3.05;;;5.80;75.80;;;;;;5004493;28;20038;-90
2020/12/18 08:54:25;;;;;;;3.20;2.88;;;5.80;75.80;;;;;;4996352;28;20046;-89
2020/12/18 08:57:17;;;;;;;3.85;2.90;;;5.80;75.80;;;;;;4995365;28;20042;-90
2020/12/18 08:59:57;;;;;;;3.60;3.10;;;5.70;75.80;;;;;;4995298;28;20050;-89
2020/12/18 09:02:23;;;;;;;5.45;2.72;;;5.80;75.80;;;;;;4982345;28;20383;-87
2020/12/18 09:05:09;;;;;;;3.15;2.58;;;5.70;76.10;;;;;;4980086;28;20049;-79
2020/12/18 09:07:39;;;;;;;3.63;2.58;;;5.70;76.20;;;;;;4996243;28;20046;-76
2020/12/18 09:10:06;;;;;;;3.80;2.70;;;5.70;76.30;;;;;;4996084;28;20038;-79
2020/12/18 09:12:41;;;;;;;3.03;2.72;;;5.70;76.30;;;;;;4996320;28;20065;-78
2020/12/18 09:15:33;;;;;;;4.43;3.22;;;5.80;76.40;;;;;;4996043;28;20486;-78
2020/12/18 09:18:04;;;;;;;4.30;2.80;;;5.80;76.40;;;;;;4975346;28;20105;-79
2020/12/18 09:20:35;;;;;;;4.75;3.20;;;5.80;76.40;;;;;;4978762;28;20544;-78
2020/12/18 09:23:12;;;;;;;2.90;2.63;;;5.80;76.40;;;;;;4978951;28;20046;-78
2020/12/18 09:25:49;;;;;;;3.53;2.80;;;5.90;76.50;;;;;;4996376;28;20502;-79
2020/12/18 09:28:18;;;;;;;3.90;3.35;;;5.90;76.40;;;;;;4996269;28;20560;-79
2020/12/18 09:30:51;;;;;;;3.45;2.90;;;5.90;76.30;;;;;;4978593;28;20057;-78
2020/12/18 09:33:26;;;;;;;3.63;3.15;;;5.90;76.30;;;;;;4995939;28;20054;-78
2020/12/18 09:35:54;;;;;;;3.95;3.08;;;5.90;76.40;;;;;;4995716;28;20490;-78
2020/12/18 09:38:25;;;;;;;3.45;3.03;;;5.90;76.40;;;;;;4977856;28;20552;-78
2020/12/18 09:40:52;;;;;;;4.25;3.47;;;5.90;76.40;;;;;;4978158;28;20042;-78
2020/12/18 09:43:19;;;;;;;4.00;3.60;;;5.90;76.30;;;;;;4995326;28;20030;-79
2020/12/18 09:45:45;;;;;;;4.38;3.28;;;5.90;76.40;;;;;;4977945;28;20041;-77
2020/12/18 09:48:11;;;;;;;3.83;3.42;;;5.90;76.40;;;;;;4962194;28;20472;-77
2020/12/18 09:50:37;;;;;;;3.58;3.22;;;5.90;76.40;;;;;;4978497;28;20035;-79
2020/12/18 09:53:04;;;;;;;4.47;3.10;;;6.00;76.40;;;;;;4995483;28;20066;-79
2020/12/18 09:55:30;;;;;;;3.67;3.15;;;5.90;76.40;;;;;;4995264;28;20469;-79
2020/12/18 09:57:57;;;;;;;4.78;3.35;;;6.00;76.40;;;;;;4995400;28;20462;-79
2020/12/18 10:00:24;;;;;;;4.95;3.72;;;5.90;76.30;;;;;;4994951;28;20137;-80
2020/12/18 10:02:49;;;;;;;3.90;3.10;;;6.00;76.00;;;;;;4997306;28;20506;-81
2020/12/18 10:05:15;;;;;;;3.60;3.10;;;6.00;75.80;;;;;;4995612;28;20438;-79
2020/12/18 10:07:41;;;;;;;6.00;3.65;;;5.90;75.50;;;;;;4995072;28;20512;-79
2020/12/18 10:10:07;;;;;;;3.45;3.10;;;5.90;75.40;;;;;;4995095;28;20485;-79
2020/12/18 10:12:33;;;;;;;3.38;3.03;;;5.90;75.40;;;;;;4993586;28;20410;-77
2020/12/18 10:14:59;;;;;;;3.53;3.15;;;5.90;75.20;;;;;;4994991;28;20034;-78
2020/12/18 10:17:25;;;;;;;3.30;2.95;;;5.90;75.10;;;;;;4994746;28;20149;-80
2020/12/18 10:19:51;;;;;;;4.13;2.80;;;6.00;75.20;;;;;;4995006;28;20038;-81
2020/12/18 10:22:18;;;;;;;4.40;3.00;;;5.90;75.00;;;;;;4994839;28;20121;-84
2020/12/18 10:24:44;;;;;;;2.67;2.47;;;5.90;75.00;;;;;;4995260;28;20564;-85
2020/12/18 10:27:11;;;;;;;3.17;2.70;;;5.90;74.90;;;;;;4995825;28;20026;-90
2020/12/18 10:29:36;;;;;;;4.40;2.90;;;6.00;74.80;;;;;;4999230;28;20407;-88
2020/12/18 10:32:03;;;;;;;3.33;3.00;;;5.90;74.60;;;;;;4995493;28;20038;-86
2020/12/18 10:34:29;;;;;;;4.63;2.95;;;5.90;74.30;;;;;;4997865;28;20046;-86
2020/12/18 10:36:56;;;;;;;3.42;2.70;;;5.90;74.00;;;;;;4997935;28;20038;-87
2020/12/18 10:39:23;;;;;;;3.25;2.95;;;5.90;73.70;;;;;;4977627;28;20077;-85
2020/12/18 10:41:53;;;;;;;4.00;2.83;;;5.90;73.50;;;;;;4977638;28;20089;-83
2020/12/18 10:44:20;;;;;;;3.75;2.85;;;5.90;73.40;;;;;;4997101;28;20423;-87
2020/12/18 10:46:47;;;;;;;3.30;2.80;;;5.90;73.30;;;;;;4999023;28;20030;-88
2020/12/18 10:49:14;;;;;;;3.40;2.80;;;5.90;73.50;;;;;;4983872;28;20042;-92
2020/12/18 10:51:44;;;;;;;3.40;3.10;;;5.90;73.30;;;;;;5001605;28;20434;-84
2020/12/18 10:54:10;;;;;;;3.47;3.05;;;5.90;73.20;;;;;;4998531;28;20049;-84
2020/12/18 10:56:44;;;;;;;2.95;2.55;;;5.90;73.10;;;;;;5010695;28;20085;-91
2020/12/18 10:59:11;;;;;;;3.97;2.75;;;5.90;73.00;;;;;;4996323;28;20101;-86
2020/12/18 11:01:38;;;;;;;4.70;2.67;;;5.90;73.10;;;;;;4995254;28;20061;-85
2020/12/18 11:04:04;;;;;;;2.90;2.60;;;5.90;73.10;;;;;;4994744;28;20113;-85
2020/12/18 11:06:30;;;;;;;3.42;2.67;;;5.80;73.00;;;;;;4995844;28;20041;-88
2020/12/18 11:08:57;;;;;;;3.20;2.78;;;5.90;73.00;;;;;;4994516;28;20070;-88
2020/12/18 11:11:23;;;;;;;3.72;2.50;;;5.90;73.00;;;;;;4993943;28;20480;-88
2020/12/18 11:13:49;;;;;;;3.55;2.30;;;5.90;73.00;;;;;;4994383;28;20038;-87
2020/12/18 11:16:18;;;;;;;3.75;2.75;;;5.80;73.10;;;;;;4993966;28;20042;-84
2020/12/18 11:18:46;;;;;;;3.00;2.40;;;5.80;73.00;;;;;;4996231;28;20089;-85
2020/12/18 11:21:12;;;;;;;2.72;2.42;;;5.90;72.90;;;;;;4994809;28;20092;-88
2020/12/18 11:23:38;;;;;;;4.63;2.92;;;5.80;72.60;;;;;;4977876;28;20038;-90
2020/12/18 11:26:04;;;;;;;6.10;2.63;;;5.90;72.40;;;;;;4996400;28;20042;-87
2020/12/18 11:28:30;;;;;;;3.53;2.70;;;5.80;72.30;;;;;;4994263;28;20374;-87
2020/12/18 11:30:56;;;;;;;3.10;2.80;;;5.80;72.30;;;;;;4994230;28;20030;-81
2020/12/18 11:33:22;;;;;;;2.83;2.40;;;5.80;72.30;;;;;;4993703;28;20050;-84
2020/12/18 11:35:48;;;;;;;2.90;2.60;;;5.80;72.20;;;;;;4993604;28;20121;-86
2020/12/18 11:38:14;;;;;;;3.38;2.70;;;5.80;72.30;;;;;;4993976;28;20133;-85
2020/12/18 11:40:40;;;;;;;2.50;2.25;;;5.80;72.20;;;;;;4994187;28;20034;-85
2020/12/18 11:43:08;;;;;;;3.55;2.80;;;5.80;72.10;;;;;;4980694;28;20053;-85
2020/12/18 11:45:34;;;;;;;4.97;2.72;;;5.80;72.00;;;;;;4976535;28;20085;-79
2020/12/18 11:48:00;;;;;;;3.53;2.60;;;5.80;72.00;;;;;;4993469;28;20049;-83
2020/12/18 11:50:29;;;;;;;2.63;2.42;;;5.80;72.00;;;;;;4993861;28;20038;-83
2020/12/18 11:52:57;;;;;;;2.83;2.53;;;5.80;72.00;;;;;;4993256;28;20533;-83
2020/12/18 11:55:23;;;;;;;3.10;2.80;;;5.80;72.00;;;;;;4993476;28;20030;-81
2020/12/18 11:57:50;;;;;;;3.72;2.92;;;5.80;71.90;;;;;;4993402;28;20156;-80
2020/12/18 12:00:19;;;;;;;3.83;2.92;;;5.70;72.40;;;;;;4993280;28;20449;-78
2020/12/18 12:02:50;;;;;;;3.17;2.88;;;5.70;71.70;;;;;;4993468;28;20042;-77
2020/12/18 12:05:18;;;;;;;4.57;3.10;;;5.80;71.70;;;;;;4993371;28;20494;-79
2020/12/18 12:07:44;;;;;;;2.83;2.58;;;5.80;71.60;;;;;;4963275;28;20406;-84
2020/12/18 12:10:11;;;;;;;3.83;2.70;;;5.70;71.60;;;;;;4994069;28;20081;-82
2020/12/18 12:12:37;;;;;;;2.65;2.35;;;5.70;71.70;;;;;;4993548;28;20046;-77
2020/12/18 12:15:04;;;;;;;3.58;2.70;;;5.70;71.60;;;;;;4976260;28;20038;-80
2020/12/18 12:17:31;;;;;;;3.45;2.78;;;5.70;71.50;;;;;;4992972;28;20137;-80
2020/12/18 12:19:57;;;;;;;4.47;3.00;;;5.70;71.50;;;;;;4976440;28;20042;-79
2020/12/18 12:22:26;;;;;;;3.83;3.20;;;5.70;71.50;;;;;;4975754;28;20128;-81
2020/12/18 12:24:52;;;;;;;2.85;2.65;;;5.70;71.50;;;;;;4959800;28;20359;-83
2020/12/18 12:27:22;;;;;;;2.95;2.60;;;5.70;71.60;;;;;;4975847;28;20045;-81
2020/12/18 12:29:48;;;;;;;2.92;2.63;;;5.70;71.70;;;;;;4992984;28;20034;-79
2020/12/18 12:32:15;;;;;;;4.40;3.28;;;5.70;71.80;;;;;;4992866;28;20534;-83
2020/12/18 12:34:41;;;;;;;6.05;3.03;;;5.70;71.70;;;;;;4976531;28;20379;-84
2020/12/18 12:37:08;;;;;;;3.53;2.45;;;5.70;71.30;;;;;;4996847;28;20426;-85
2020/12/18 12:39:34;;;;;;;5.18;2.50;;;5.70;71.10;;;;;;4980244;28;20038;-84
2020/12/18 12:42:03;;;;;;;3.08;2.78;;;5.60;70.80;;;;;;4997389;28;20034;-86
2020/12/18 12:44:30;;;;;;;4.90;3.05;;;5.60;70.70;;;;;;4998480;28;20037;-88
2020/12/18 12:46:56;;;;;;;5.20;2.63;;;5.60;70.80;;;;;;4987510;28;20105;-85
2020/12/18 12:49:22;;;;;;;4.22;2.97;;;5.60;70.70;;;;;;4983204;28;20042;-84
2020/12/18 12:51:48;;;;;;;3.35;2.78;;;5.60;70.70;;;;;;4999036;28;20034;-89
2020/12/18 12:54:14;;;;;;;3.45;2.78;;;5.50;70.70;;;;;;4999473;28;20034;-86
2020/12/18 12:56:41;;;;;;;5.90;2.80;;;5.40;71.90;;;;;;4986830;28;20031;-82
2020/12/18 12:59:08;;;;;;;3.25;2.95;;;5.40;73.70;;;;;;4980843;28;20057;-86
2020/12/18 13:01:33;;;;;;;3.28;2.85;;;5.50;73.80;;;;;;4997028;28;20089;-87
2020/12/18 13:04:00;;;;;;;4.05;2.85;;;5.50;73.50;;;;;;4979359;28;20038;-86
2020/12/18 13:06:26;;;;;;;3.75;3.25;;;5.50;73.30;;;;;;4981497;28;20034;-85
2020/12/18 13:08:52;;;;;;;3.55;3.08;;;5.50;73.30;;;;;;4997006;28;20031;-81
2020/12/18 13:11:18;;;;;;;3.25;2.95;;;5.50;73.10;;;;;;4996770;28;20432;-82
2020/12/18 13:13:44;;;;;;;3.65;3.20;;;5.50;73.00;;;;;;4996370;28;20034;-83
2020/12/18 13:16:11;;;;;;;3.75;3.35;;;5.50;72.70;;;;;;4996454;28;20026;-80
2020/12/18 13:18:37;;;;;;;3.70;3.25;;;5.50;72.50;;;;;;4963502;28;20042;-80
2020/12/18 13:21:04;;;;;;;3.42;3.05;;;5.50;72.30;;;;;;4997898;28;20062;-79